Time;durP1;ratioP1;P1;durP2;ratioP2;P2;SDS_P1;SDS_P2;PMS_P1;PMS_P2;Temp;Humidity;BMP_temperature;BMP_pressure;BME280_temperature;BME280_humidity;BME280_pressure;Samples;Min_cycle;Max_cycle;Signal;HPM_P1;HPM_P2
2022/08/04 00:01:32;;;;;;;10.83;2.50;;;22.30;99.90;;;;;;5113214;27;20227;-64
2022/08/04 00:04:02;;;;;;;5.10;1.73;;;22.30;99.90;;;;;;5113175;28;20203;-65
2022/08/04 00:06:40;;;;;;;4.97;1.60;;;22.20;99.90;;;;;;5112838;28;20291;-65
2022/08/04 00:09:13;;;;;;;11.30;2.10;;;22.20;99.90;;;;;;5113048;28;20220;-65
2022/08/04 00:11:44;;;;;;;6.07;2.20;;;22.20;99.90;;;;;;5113063;28;20224;-65
2022/08/04 00:14:15;;;;;;;5.77;1.87;;;22.20;99.90;;;;;;5113083;28;20256;-65
2022/08/04 00:16:48;;;;;;;7.07;2.20;;;22.20;99.90;;;;;;5112568;28;20275;-64
2022/08/04 00:19:18;;;;;;;4.67;1.67;;;22.20;99.90;;;;;;5112819;28;20296;-64
2022/08/04 00:21:48;;;;;;;8.97;1.70;;;22.20;99.90;;;;;;5112851;27;20223;-64
2022/08/04 00:24:16;;;;;;;8.37;2.00;;;22.10;99.90;;;;;;5112944;28;20203;-64
2022/08/04 00:26:43;;;;;;;14.63;2.47;;;22.10;99.90;;;;;;5112296;28;20211;-64
2022/08/04 00:29:11;;;;;;;7.03;1.97;;;22.10;99.90;;;;;;5112480;28;20775;-64
2022/08/04 00:31:41;;;;;;;8.20;1.93;;;22.00;99.90;;;;;;5112822;28;20292;-64
2022/08/04 00:34:11;;;;;;;7.00;1.63;;;22.00;99.90;;;;;;5112852;28;20199;-64
2022/08/04 00:36:39;;;;;;;8.97;2.03;;;22.00;99.90;;;;;;5112142;28;20618;-64
2022/08/04 00:39:07;;;;;;;9.43;2.03;;;22.00;99.90;;;;;;5112661;28;20203;-65
2022/08/04 00:41:52;;;;;;;7.80;1.93;;;21.90;99.90;;;;;;5112433;28;20639;-64
2022/08/04 00:44:30;;;;;;;4.97;1.50;;;21.90;99.90;;;;;;5112773;28;20204;-64
2022/08/04 00:47:08;;;;;;;7.27;1.53;;;21.90;99.90;;;;;;5112235;28;20208;-64
2022/08/04 00:50:00;;;;;;;6.90;1.80;;;21.90;99.90;;;;;;5112507;28;20772;-64
2022/08/04 00:52:36;;;;;;;6.20;2.10;;;21.90;99.90;;;;;;5112202;28;20260;-64
2022/08/04 00:55:23;;;;;;;7.27;2.77;;;21.90;99.90;;;;;;5112472;28;20607;-64
2022/08/04 00:58:03;;;;;;;5.40;1.60;;;21.90;99.90;;;;;;5112011;28;20203;-64
2022/08/04 01:00:40;;;;;;;7.83;1.73;;;21.90;99.90;;;;;;5112199;28;20273;-64
2022/08/04 01:03:12;;;;;;;5.50;2.50;;;21.90;99.90;;;;;;5112355;28;20207;-64
2022/08/04 01:05:51;;;;;;;10.80;2.10;;;21.80;99.90;;;;;;5116234;28;20622;-64
2022/08/04 01:08:47;;;;;;;10.23;2.30;;;21.80;99.90;;;;;;5116548;28;20256;-64
2022/08/04 01:11:26;;;;;;;6.43;1.67;;;21.80;99.90;;;;;;5105788;28;20239;-64
2022/08/04 01:14:06;;;;;;;6.83;1.77;;;21.80;99.90;;;;;;5116458;28;20232;-64
2022/08/04 01:16:41;;;;;;;6.57;2.00;;;21.80;99.90;;;;;;5116223;28;20203;-65
2022/08/04 01:19:23;;;;;;;8.93;2.37;;;21.80;99.90;;;;;;5116081;27;20214;-65
2022/08/04 01:22:19;;;;;;;6.33;1.73;;;21.80;99.90;;;;;;5116366;28;20231;-66
2022/08/04 01:25:11;;;;;;;7.27;1.90;;;21.70;99.90;;;;;;5080688;28;20203;-64
2022/08/04 01:28:02;;;;;;;6.07;1.73;;;21.70;99.90;;;;;;5115713;28;20207;-64
2022/08/04 01:30:33;;;;;;;4.50;1.40;;;21.70;99.90;;;;;;5116020;28;20230;-65
2022/08/04 01:33:03;;;;;;;8.27;2.33;;;21.60;99.90;;;;;;5116006;27;20835;-64
2022/08/04 01:35:35;;;;;;;8.90;1.73;;;21.60;99.90;;;;;;5116065;28;20656;-64
2022/08/04 01:38:13;;;;;;;7.27;1.73;;;21.60;99.90;;;;;;5115588;28;20560;-64
2022/08/04 01:40:42;;;;;;;9.87;2.50;;;21.60;99.90;;;;;;5115946;28;20223;-64
2022/08/04 01:43:10;;;;;;;7.53;2.23;;;21.50;99.90;;;;;;5115934;28;20226;-65
2022/08/04 01:45:38;;;;;;;9.93;3.23;;;21.50;99.90;;;;;;5115645;28;20203;-65
2022/08/04 01:48:07;;;;;;;5.07;1.80;;;21.40;99.90;;;;;;5115548;28;20207;-65
2022/08/04 01:50:35;;;;;;;5.10;1.93;;;21.40;99.90;;;;;;5115357;28;20223;-65
2022/08/04 01:53:03;;;;;;;6.77;1.90;;;21.30;99.90;;;;;;5115872;28;20265;-65
2022/08/04 01:55:31;;;;;;;6.03;1.90;;;21.30;99.90;;;;;;5115533;27;20739;-65
2022/08/04 01:58:00;;;;;;;7.20;2.23;;;21.20;99.90;;;;;;5115382;28;20212;-65
2022/08/04 02:00:29;;;;;;;7.07;2.40;;;21.20;99.90;;;;;;5115568;27;20223;-65
2022/08/04 02:02:57;;;;;;;5.43;2.00;;;21.10;99.90;;;;;;5115989;28;20272;-65
2022/08/04 02:05:26;;;;;;;8.57;1.90;;;21.10;99.90;;;;;;5115321;28;20738;-65
2022/08/04 02:08:07;;;;;;;7.07;1.90;;;21.10;99.90;;;;;;5114953;28;20204;-64
2022/08/04 02:10:49;;;;;;;7.40;1.90;;;21.00;99.90;;;;;;5115171;28;20268;-65
2022/08/04 02:13:23;;;;;;;7.83;1.73;;;21.00;99.90;;;;;;5115181;28;20256;-64
2022/08/04 02:15:58;;;;;;;8.20;2.10;;;21.00;99.90;;;;;;5115314;28;20261;-64
2022/08/04 02:18:30;;;;;;;7.73;1.90;;;21.00;99.90;;;;;;5115297;28;20211;-65
2022/08/04 02:20:59;;;;;;;10.40;2.17;;;21.00;99.90;;;;;;5115210;28;20717;-65
2022/08/04 02:23:30;;;;;;;6.20;2.20;;;21.00;99.90;;;;;;5115065;28;20260;-65
2022/08/04 02:26:00;;;;;;;6.17;2.33;;;21.00;99.90;;;;;;5114839;28;20212;-65
2022/08/04 02:28:34;;;;;;;5.73;2.20;;;21.10;99.90;;;;;;5115020;28;20208;-64
2022/08/04 02:31:13;;;;;;;5.27;1.90;;;21.00;99.90;;;;;;5114989;28;20685;-65
2022/08/04 02:33:43;;;;;;;4.47;1.87;;;21.00;99.90;;;;;;5114663;28;20738;-65
2022/08/04 02:36:23;;;;;;;8.77;2.00;;;21.00;99.90;;;;;;5114442;28;20203;-64
2022/08/04 02:38:59;;;;;;;6.17;1.90;;;21.00;99.90;;;;;;5114656;28;20569;-64
2022/08/04 02:41:28;;;;;;;6.80;2.10;;;20.90;99.90;;;;;;5114857;27;20276;-65
2022/08/04 02:43:57;;;;;;;8.07;2.10;;;21.00;99.90;;;;;;5114732;28;20212;-65
2022/08/04 02:46:25;;;;;;;7.77;1.90;;;20.90;99.90;;;;;;5114308;28;20207;-64
2022/08/04 02:48:54;;;;;;;5.13;2.27;;;21.00;99.90;;;;;;5114396;28;20211;-64
2022/08/04 02:51:24;;;;;;;11.47;2.40;;;21.00;99.90;;;;;;5114606;28;20238;-64
2022/08/04 02:53:54;;;;;;;4.37;2.23;;;20.90;99.90;;;;;;5115139;28;20204;-64
2022/08/04 02:56:23;;;;;;;8.63;2.33;;;20.90;99.90;;;;;;5114217;28;20207;-64
2022/08/04 02:58:54;;;;;;;7.73;2.10;;;20.90;99.90;;;;;;5114495;28;20211;-64
2022/08/04 03:01:23;;;;;;;6.47;1.90;;;20.80;99.90;;;;;;5114057;28;20709;-64
2022/08/04 03:04:06;;;;;;;5.17;2.67;;;20.90;99.90;;;;;;5113862;28;20260;-65
2022/08/04 03:07:13;;;;;;;8.77;2.17;;;20.90;99.90;;;;;;5114007;28;20207;-64
2022/08/04 03:10:01;;;;;;;5.07;2.07;;;20.90;99.90;;;;;;5097111;28;20199;-65
2022/08/04 03:13:11;;;;;;;6.97;2.03;;;20.80;1.00;;;;;;5114364;28;20264;-64
2022/08/04 03:15:57;;;;;;;7.40;2.10;;;20.80;1.00;;;;;;5113899;28;20575;-64
2022/08/04 03:18:49;;;;;;;10.13;2.53;;;20.90;1.00;;;;;;5114837;27;20211;-64
2022/08/04 03:21:48;;;;;;;4.27;1.90;;;20.90;99.90;;;;;;5114094;28;20216;-64
2022/08/04 03:25:00;;;;;;;5.60;2.40;;;20.90;99.90;;;;;;5113731;28;20620;-65
2022/08/04 03:27:58;;;;;;;5.77;2.43;;;20.90;99.90;;;;;;5112811;28;20701;-65
2022/08/04 03:30:39;;;;;;;6.67;2.00;;;20.90;99.90;;;;;;5110892;27;20231;-65
2022/08/04 03:33:24;;;;;;;4.53;2.03;;;20.90;99.90;;;;;;5113747;28;20203;-65
2022/08/04 03:36:23;;;;;;;7.70;2.50;;;20.90;99.90;;;;;;5113603;28;20210;-65
2022/08/04 03:39:23;;;;;;;11.70;2.30;;;20.90;99.90;;;;;;5092622;28;20623;-65
2022/08/04 03:42:17;;;;;;;4.40;2.27;;;20.80;1.00;;;;;;5113422;28;20220;-65
2022/08/04 03:45:13;;;;;;;6.73;2.30;;;20.80;1.00;;;;;;5113655;28;20261;-65
2022/08/04 03:48:07;;;;;;;4.53;2.40;;;20.80;1.00;;;;;;5113213;28;20272;-65
2022/08/04 03:54:16;;;;;;;9.63;2.73;;;20.60;1.00;;;;;;5113484;28;20222;-64
2022/08/04 03:57:02;;;;;;;7.50;2.63;;;20.60;58.60;;;;;;5113138;28;20207;-64
2022/08/04 03:59:46;;;;;;;13.83;4.90;;;20.50;99.90;;;;;;5113137;28;20642;-65
2022/08/04 04:02:45;;;;;;;9.20;3.57;;;20.50;99.90;;;;;;5113315;28;20265;-65
2022/08/04 04:05:38;;;;;;;10.57;3.50;;;20.40;99.90;;;;;;5102550;28;20643;-65
2022/08/04 04:08:33;;;;;;;9.13;3.30;;;20.20;99.90;;;;;;5112917;28;20191;-65
2022/08/04 04:11:30;;;;;;;6.03;2.83;;;20.10;1.00;;;;;;5111003;28;20224;-67
2022/08/04 04:14:18;;;;;;;5.63;3.30;;;20.10;1.00;;;;;;5112827;28;20211;-65
2022/08/04 04:17:17;;;;;;;5.70;2.70;;;20.00;99.90;;;;;;5112934;28;20271;-65
2022/08/04 04:20:09;;;;;;;9.73;2.60;;;20.00;99.90;;;;;;5112821;28;20218;-65
2022/08/04 04:22:54;;;;;;;9.13;2.87;;;20.10;99.90;;;;;;5112786;27;20211;-65
2022/08/04 04:25:34;;;;;;;7.20;2.63;;;20.10;1.00;;;;;;5113025;28;20204;-63
2022/08/04 04:28:32;;;;;;;4.87;2.43;;;20.10;1.00;;;;;;5112403;28;20229;-63
2022/08/04 04:31:18;;;;;;;7.33;2.87;;;20.40;1.00;;;;;;5112678;28;20781;-63
2022/08/04 04:33:57;;;;;;;5.67;2.53;;;20.60;1.00;;;;;;5112804;28;20237;-63
2022/08/04 04:36:36;;;;;;;4.87;2.60;;;20.70;1.00;;;;;;5112355;28;20229;-63
2022/08/04 04:39:13;;;;;;;6.50;2.90;;;20.80;99.90;;;;;;5109659;28;20628;-65
2022/08/04 04:41:59;;;;;;;9.10;3.00;;;21.00;99.90;;;;;;5111092;28;20256;-65
2022/08/04 04:45:02;;;;;;;6.27;2.27;;;21.10;99.90;;;;;;5092327;28;20626;-66
2022/08/04 04:47:40;;;;;;;3.20;2.10;;;21.20;81.70;;;;;;5091763;28;20229;-65
2022/08/04 04:50:14;;;;;;;4.90;2.53;;;21.30;99.90;;;;;;5091956;28;20265;-66
2022/08/04 04:52:45;;;;;;;7.10;2.60;;;21.40;1.00;;;;;;5091574;28;20666;-65
2022/08/04 04:55:19;;;;;;;4.63;2.40;;;21.40;99.90;;;;;;5092198;28;20211;-65
2022/08/04 04:57:47;;;;;;;7.27;2.60;;;21.40;1.00;;;;;;5091290;28;20208;-65
2022/08/04 05:00:15;;;;;;;7.57;2.50;;;21.50;99.90;;;;;;5091738;28;20726;-65
2022/08/04 05:03:05;;;;;;;3.50;2.20;;;21.60;1.00;;;;;;5091838;28;20634;-65
2022/08/04 05:05:52;;;;;;;5.43;3.83;;;21.60;99.90;;;;;;5091880;28;20231;-65
2022/08/04 05:08:35;;;;;;;4.63;2.70;;;21.60;1.00;;;;;;5091446;28;20204;-65
2022/08/04 05:11:47;;;;;;;5.50;2.60;;;21.60;1.00;;;;;;5096701;28;20280;-65
2022/08/04 05:14:20;;;;;;;7.63;2.67;;;21.60;99.90;;;;;;5111994;28;20208;-65
2022/08/04 05:16:51;;;;;;;6.30;3.00;;;21.70;1.00;;;;;;5111699;28;20200;-65
2022/08/04 05:19:24;;;;;;;7.17;2.60;;;21.80;99.90;;;;;;5111334;28;20208;-66
2022/08/04 05:21:59;;;;;;;7.80;3.23;;;21.90;99.90;;;;;;5111891;28;20220;-65
2022/08/04 05:24:28;;;;;;;5.77;2.70;;;21.90;99.90;;;;;;5111787;28;20355;-67
2022/08/04 05:27:00;;;;;;;13.53;3.50;;;22.00;99.90;;;;;;5111504;28;20355;-66
2022/08/04 05:29:31;;;;;;;10.50;4.23;;;22.10;99.90;;;;;;5112172;28;20212;-65
2022/08/04 05:32:01;;;;;;;7.83;3.60;;;22.20;1.00;;;;;;5111849;28;20638;-67
2022/08/04 05:34:33;;;;;;;6.43;3.27;;;22.30;1.00;;;;;;5111772;28;20238;-67
2022/08/04 05:37:05;;;;;;;10.13;2.77;;;22.40;1.00;;;;;;5111136;28;20293;-66
2022/08/04 05:39:38;;;;;;;11.50;3.60;;;22.50;1.00;;;;;;5111941;28;20253;-66
2022/08/04 05:42:06;;;;;;;8.80;3.33;;;22.50;1.00;;;;;;5111659;28;20227;-65
2022/08/04 05:44:35;;;;;;;12.77;3.47;;;22.60;99.90;;;;;;5111578;28;20203;-65
2022/08/04 05:47:03;;;;;;;16.13;3.50;;;22.60;99.90;;;;;;5110951;28;20210;-65
2022/08/04 05:49:33;;;;;;;9.03;3.50;;;22.70;99.90;;;;;;5111605;28;20708;-65
2022/08/04 05:52:02;;;;;;;11.27;3.60;;;22.80;99.90;;;;;;5114907;27;20227;-65
2022/08/04 05:54:31;;;;;;;5.90;2.50;;;22.90;46.80;;;;;;5115111;28;20268;-65
2022/08/04 05:56:59;;;;;;;7.37;2.53;;;23.00;1.00;;;;;;5115022;28;20565;-64
2022/08/04 05:59:28;;;;;;;9.17;2.77;;;23.10;1.00;;;;;;5115276;28;20207;-65
2022/08/04 06:01:57;;;;;;;10.30;2.27;;;23.20;1.00;;;;;;5115446;28;20227;-65
2022/08/04 06:04:30;;;;;;;4.20;2.60;;;23.30;1.00;;;;;;5115169;27;20207;-65
2022/08/04 06:06:59;;;;;;;6.30;2.17;;;23.40;99.90;;;;;;5114943;28;20218;-65
2022/08/04 06:09:25;;;;;;;3.80;2.50;;;23.40;99.90;;;;;;5115874;28;20207;-64
2022/08/04 06:11:53;;;;;;;4.83;2.27;;;23.50;99.90;;;;;;5115428;28;20288;-62
2022/08/04 06:14:23;;;;;;;3.53;2.17;;;23.60;99.90;;;;;;5115276;28;20739;-66
2022/08/04 06:16:52;;;;;;;2.60;1.90;;;23.60;99.90;;;;;;5115370;28;20280;-63
2022/08/04 06:19:21;;;;;;;3.33;2.20;;;23.60;99.90;;;;;;5114395;28;20216;-65
2022/08/04 06:21:49;;;;;;;5.53;2.30;;;23.60;99.90;;;;;;5115030;27;20216;-65
2022/08/04 06:24:20;;;;;;;5.43;2.60;;;23.60;99.90;;;;;;5114792;28;20693;-66
2022/08/04 06:26:49;;;;;;;4.77;2.37;;;23.60;99.90;;;;;;5114257;28;20243;-63
2022/08/04 06:29:23;;;;;;;2.67;2.30;;;23.60;99.90;;;;;;5114840;28;20211;-63
2022/08/04 06:31:57;;;;;;;3.27;2.30;;;23.70;99.90;;;;;;5114551;28;20226;-64
2022/08/04 06:34:26;;;;;;;4.53;2.23;;;23.80;99.90;;;;;;5114881;28;20204;-66
2022/08/04 06:36:53;;;;;;;4.53;2.40;;;23.90;99.90;;;;;;5114099;28;20203;-64
2022/08/04 06:39:23;;;;;;;3.30;2.30;;;24.00;99.90;;;;;;5114603;28;20199;-64
2022/08/04 06:41:51;;;;;;;3.30;2.33;;;24.10;99.90;;;;;;5113928;28;20976;-65
2022/08/04 06:44:20;;;;;;;4.83;2.43;;;24.20;99.90;;;;;;5114268;28;20199;-67
2022/08/04 06:46:48;;;;;;;2.70;2.20;;;24.40;99.90;;;;;;5113686;28;20204;-66
2022/08/04 06:49:16;;;;;;;3.30;2.10;;;24.50;99.90;;;;;;5114516;28;20208;-66
2022/08/04 06:51:45;;;;;;;3.63;2.20;;;24.70;99.90;;;;;;5114041;28;20227;-68
2022/08/04 06:54:12;;;;;;;6.07;2.00;;;24.90;99.90;;;;;;5114329;28;20260;-66
2022/08/04 06:56:42;;;;;;;3.70;2.27;;;25.10;99.90;;;;;;5113865;27;20207;-66
2022/08/04 06:59:11;;;;;;;4.40;2.50;;;25.30;99.90;;;;;;5114259;28;20237;-66
2022/08/04 07:01:40;;;;;;;3.23;2.30;;;25.50;99.90;;;;;;5113187;28;20224;-66
2022/08/04 07:04:07;;;;;;;3.17;2.07;;;25.50;99.90;;;;;;5113886;28;20208;-67
2022/08/04 07:06:34;;;;;;;4.17;2.37;;;25.70;99.90;;;;;;5113547;28;20208;-63
2022/08/04 07:09:02;;;;;;;4.30;2.23;;;25.80;99.90;;;;;;5108238;28;20278;-67
2022/08/04 07:11:29;;;;;;;3.00;2.50;;;26.00;99.90;;;;;;5104188;28;20277;-65
2022/08/04 07:13:59;;;;;;;3.77;2.40;;;26.10;99.90;;;;;;5112863;28;20215;-66
2022/08/04 07:16:25;;;;;;;5.00;2.50;;;26.20;99.90;;;;;;5113139;28;20203;-66
2022/08/04 07:18:52;;;;;;;3.13;2.23;;;26.30;99.90;;;;;;5113268;28;20215;-64
2022/08/04 07:21:22;;;;;;;2.33;1.77;;;26.50;99.90;;;;;;5112889;27;20337;-65
2022/08/04 07:23:49;;;;;;;9.10;3.00;;;26.60;99.90;;;;;;5112980;28;20231;-64
2022/08/04 07:26:17;;;;;;;4.93;2.20;;;26.80;99.90;;;;;;5112975;28;20669;-65
2022/08/04 07:28:45;;;;;;;3.57;2.03;;;26.90;99.90;;;;;;5099054;28;20270;-65
2022/08/04 07:31:16;;;;;;;5.13;2.33;;;27.10;99.90;;;;;;5116001;28;20223;-66
2022/08/04 07:33:44;;;;;;;5.40;2.37;;;27.10;99.90;;;;;;5113875;28;20257;-65
2022/08/04 07:36:13;;;;;;;3.10;2.17;;;27.20;99.90;;;;;;5113328;28;20652;-64
2022/08/04 07:38:41;;;;;;;2.70;2.20;;;27.20;99.90;;;;;;5112927;28;20647;-66
2022/08/04 07:41:08;;;;;;;9.20;2.77;;;27.40;99.90;;;;;;5112845;27;20260;-67
2022/08/04 07:43:37;;;;;;;3.10;2.20;;;27.50;99.90;;;;;;5112821;28;20252;-67
2022/08/04 07:46:04;;;;;;;5.87;2.10;;;27.60;99.90;;;;;;5112483;28;20294;-71
2022/08/04 07:48:32;;;;;;;3.77;2.33;;;27.70;99.90;;;;;;5112459;28;20207;-67
2022/08/04 07:51:00;;;;;;;4.13;2.53;;;27.90;99.90;;;;;;5112034;28;20717;-66
2022/08/04 07:53:28;;;;;;;4.50;2.37;;;28.10;99.90;;;;;;5112748;28;20199;-68
2022/08/04 07:55:55;;;;;;;3.30;2.20;;;28.30;99.90;;;;;;5112192;28;20612;-67
2022/08/04 07:58:22;;;;;;;2.80;2.07;;;28.40;99.90;;;;;;5112558;28;20260;-69
2022/08/04 08:00:48;;;;;;;3.50;2.40;;;28.60;99.90;;;;;;5111954;28;20579;-66
2022/08/04 08:03:16;;;;;;;6.10;2.20;;;28.70;99.90;;;;;;5103762;28;20196;-66
2022/08/04 08:05:44;;;;;;;3.53;2.23;;;28.80;99.90;;;;;;5112179;28;20344;-67
2022/08/04 08:08:11;;;;;;;2.20;1.87;;;29.00;99.90;;;;;;5111867;28;20643;-69
2022/08/04 08:10:39;;;;;;;2.30;2.10;;;29.00;99.90;;;;;;5112171;28;20311;-68
2022/08/04 08:13:07;;;;;;;2.83;2.23;;;29.20;99.90;;;;;;5111638;28;20223;-68
2022/08/04 08:15:35;;;;;;;2.43;1.90;;;29.30;99.90;;;;;;5112271;28;20207;-70
2022/08/04 08:18:02;;;;;;;2.40;1.90;;;29.40;99.90;;;;;;5108895;28;20629;-66
2022/08/04 08:20:31;;;;;;;3.05;2.13;;;29.60;99.90;;;;;;5112046;28;20275;-67
2022/08/04 08:23:01;;;;;;;5.85;1.80;;;29.70;99.90;;;;;;5111250;28;20605;-67
2022/08/04 08:25:30;;;;;;;4.30;2.17;;;29.90;99.90;;;;;;5112113;28;20207;-67
2022/08/04 08:27:56;;;;;;;3.53;2.08;;;30.10;99.90;;;;;;5111692;28;20207;-67
2022/08/04 08:30:23;;;;;;;4.15;2.00;;;30.20;99.90;;;;;;5111627;28;20223;-67
2022/08/04 08:32:50;;;;;;;4.18;2.30;;;30.30;99.90;;;;;;5111590;28;20878;-65
2022/08/04 08:35:18;;;;;;;4.72;1.95;;;30.40;99.90;;;;;;5110476;28;20200;-64
2022/08/04 08:37:55;;;;;;;6.60;2.45;;;30.50;99.90;;;;;;5111449;28;20268;-65
2022/08/04 08:40:32;;;;;;;5.70;2.38;;;30.60;99.90;;;;;;5111670;28;20268;-65
2022/08/04 08:43:23;;;;;;;7.15;2.00;;;30.70;99.90;;;;;;5111664;28;20200;-64
2022/08/04 08:46:20;;;;;;;3.90;2.00;;;30.80;99.90;;;;;;5111730;28;20214;-68
2022/08/04 08:49:12;;;;;;;2.75;2.08;;;30.90;99.90;;;;;;5112159;28;20199;-66
2022/08/04 08:51:55;;;;;;;5.28;2.03;;;31.10;99.90;;;;;;5111051;28;20231;-67
2022/08/04 08:55:08;;;;;;;4.95;2.13;;;31.30;99.90;;;;;;5111873;28;20230;-66
2022/08/04 08:57:49;;;;;;;5.28;1.88;;;31.30;99.90;;;;;;5111054;28;20210;-66
2022/08/04 09:00:23;;;;;;;4.70;1.98;;;31.40;99.90;;;;;;5112051;28;20280;-68
2022/08/04 09:03:23;;;;;;;4.15;1.80;;;31.50;99.90;;;;;;5111400;28;20276;-68
2022/08/04 09:06:23;;;;;;;2.63;1.70;;;31.70;99.90;;;;;;5107761;28;20632;-67
2022/08/04 09:09:18;;;;;;;3.47;1.65;;;31.90;99.90;;;;;;5090827;28;20211;-67
2022/08/04 09:11:54;;;;;;;3.25;1.67;;;32.00;99.90;;;;;;5111302;28;20284;-71
2022/08/04 09:14:28;;;;;;;1.85;1.70;;;32.00;99.90;;;;;;5111285;28;20264;-65
2022/08/04 09:17:01;;;;;;;4.00;1.65;;;32.10;99.90;;;;;;5111594;28;20203;-69
2022/08/04 09:19:34;;;;;;;6.20;1.65;;;32.20;99.90;;;;;;5111843;28;20306;-68
2022/08/04 09:22:09;;;;;;;6.13;1.80;;;32.40;99.90;;;;;;5112104;28;20725;-68
2022/08/04 09:24:47;;;;;;;2.95;1.90;;;32.40;99.90;;;;;;5111986;28;20602;-67
2022/08/04 09:27:18;;;;;;;4.20;1.80;;;32.40;99.90;;;;;;5115177;28;20215;-65
2022/08/04 09:29:53;;;;;;;2.00;1.60;;;32.50;99.90;;;;;;5115479;28;20200;-64
2022/08/04 09:32:30;;;;;;;2.75;1.42;;;32.70;99.90;;;;;;5114908;27;20758;-67
2022/08/04 09:35:06;;;;;;;3.75;1.48;;;32.80;99.90;;;;;;5113849;28;20240;-63
2022/08/04 09:37:40;;;;;;;4.28;1.70;;;32.80;99.90;;;;;;5114760;28;20268;-64
2022/08/04 09:40:17;;;;;;;3.25;1.50;;;32.80;99.90;;;;;;5115633;28;20199;-66
2022/08/04 09:42:55;;;;;;;4.22;1.65;;;32.90;99.90;;;;;;5114866;27;20195;-65
2022/08/04 09:45:33;;;;;;;4.13;1.63;;;33.00;99.90;;;;;;5114614;28;20264;-65
2022/08/04 09:48:07;;;;;;;4.13;1.63;;;32.90;99.90;;;;;;5114821;28;20199;-65
2022/08/04 09:50:37;;;;;;;6.78;1.77;;;32.80;99.90;;;;;;5114667;28;20227;-64
2022/08/04 09:53:29;;;;;;;4.18;1.45;;;33.00;99.90;;;;;;5113757;27;20230;-65
2022/08/04 09:56:05;;;;;;;3.28;1.58;;;33.20;99.90;;;;;;5113367;28;20211;-65
2022/08/04 09:58:46;;;;;;;2.80;1.70;;;33.40;99.90;;;;;;5115128;28;20207;-65
2022/08/04 10:01:18;;;;;;;2.58;1.50;;;33.40;99.90;;;;;;5114468;28;20284;-65
2022/08/04 10:03:49;;;;;;;4.25;1.40;;;33.50;99.90;;;;;;5115955;28;20199;-65
2022/08/04 10:06:39;;;;;;;4.20;1.45;;;33.40;99.90;;;;;;5113043;28;20200;-65
2022/08/04 10:09:44;;;;;;;1.88;1.52;;;33.40;99.90;;;;;;5114858;28;20231;-65
2022/08/04 10:12:28;;;;;;;1.85;1.67;;;33.50;99.90;;;;;;5113961;28;20312;-63
2022/08/04 10:15:08;;;;;;;4.35;1.98;;;33.40;99.90;;;;;;5115017;28;20214;-64
2022/08/04 10:17:50;;;;;;;1.85;1.50;;;33.30;99.90;;;;;;5113920;28;20203;-65
2022/08/04 10:20:28;;;;;;;3.35;1.60;;;33.20;99.90;;;;;;5114478;27;20717;-63
2022/08/04 10:23:05;;;;;;;8.05;1.83;;;33.20;99.90;;;;;;5113891;28;20204;-64
2022/08/04 10:25:45;;;;;;;2.65;1.50;;;33.20;99.90;;;;;;5114527;28;20238;-65
2022/08/04 10:28:17;;;;;;;4.55;1.80;;;33.40;99.90;;;;;;5114085;28;20260;-64
2022/08/04 10:30:49;;;;;;;2.15;1.30;;;33.40;99.90;;;;;;5114321;28;20272;-65
2022/08/04 10:33:24;;;;;;;5.75;1.27;;;33.40;99.90;;;;;;5113748;28;20285;-64
2022/08/04 10:35:56;;;;;;;2.10;1.23;;;33.20;99.90;;;;;;5113462;28;20686;-64
2022/08/04 10:38:29;;;;;;;3.63;1.20;;;33.10;99.90;;;;;;5113717;28;20269;-65
2022/08/04 10:41:01;;;;;;;4.00;1.63;;;32.90;99.90;;;;;;5112239;28;20246;-65
2022/08/04 10:43:41;;;;;;;5.28;1.55;;;32.60;99.90;;;;;;5114014;28;20208;-64
2022/08/04 10:46:12;;;;;;;4.53;1.38;;;32.50;99.90;;;;;;5113695;28;20217;-65
2022/08/04 10:48:46;;;;;;;3.72;1.70;;;32.50;99.90;;;;;;5113736;28;20314;-66
2022/08/04 10:51:21;;;;;;;2.95;1.63;;;32.50;99.90;;;;;;5113497;28;20638;-65
2022/08/04 10:53:54;;;;;;;4.63;1.80;;;32.80;99.90;;;;;;5113816;28;20223;-63
2022/08/04 10:56:29;;;;;;;5.38;1.63;;;33.10;99.90;;;;;;5113149;28;20212;-64
2022/08/04 10:59:02;;;;;;;4.32;1.70;;;33.30;99.90;;;;;;5114045;28;20645;-65
2022/08/04 11:01:33;;;;;;;5.72;1.70;;;33.50;99.90;;;;;;5113271;28;20230;-68
2022/08/04 11:04:07;;;;;;;2.28;1.58;;;33.50;99.90;;;;;;5114167;28;20204;-65
2022/08/04 11:06:34;;;;;;;4.40;1.98;;;33.60;99.90;;;;;;5113802;27;20207;-64
2022/08/04 11:09:03;;;;;;;3.90;2.10;;;33.30;99.90;;;;;;5113363;27;20260;-65
2022/08/04 11:11:35;;;;;;;3.38;2.13;;;33.10;99.90;;;;;;5113342;28;20237;-65
2022/08/04 11:14:04;;;;;;;5.15;2.20;;;32.80;99.90;;;;;;5113213;28;20284;-65
2022/08/04 11:16:51;;;;;;;6.90;2.50;;;32.80;99.90;;;;;;5112985;28;20260;-64
2022/08/04 11:19:29;;;;;;;4.25;1.80;;;32.90;99.90;;;;;;5112739;28;20641;-65
2022/08/04 11:21:59;;;;;;;3.50;2.10;;;32.90;99.90;;;;;;5112736;28;20223;-65
2022/08/04 11:24:36;;;;;;;5.88;2.42;;;33.00;99.90;;;;;;5112913;28;20237;-66
2022/08/04 11:27:08;;;;;;;5.20;2.60;;;33.00;99.90;;;;;;5113039;28;20328;-66
2022/08/04 11:29:41;;;;;;;5.65;1.92;;;33.20;99.90;;;;;;5112819;28;20204;-65
2022/08/04 11:32:15;;;;;;;3.42;1.90;;;33.20;99.90;;;;;;5112764;28;20224;-64
2022/08/04 11:34:48;;;;;;;5.47;1.90;;;33.40;99.90;;;;;;5113020;28;20826;-66
2022/08/04 11:37:20;;;;;;;4.70;2.15;;;33.50;99.90;;;;;;5112591;28;20256;-65
2022/08/04 11:39:52;;;;;;;2.72;1.83;;;33.60;99.90;;;;;;5112990;28;20302;-65
2022/08/04 11:42:23;;;;;;;3.85;2.25;;;33.60;99.90;;;;;;5112162;28;20227;-66
2022/08/04 11:44:55;;;;;;;6.10;2.22;;;33.40;99.90;;;;;;5113227;28;20204;-65
2022/08/04 11:47:30;;;;;;;6.00;2.00;;;33.20;99.90;;;;;;5112082;28;20300;-65
2022/08/04 11:50:03;;;;;;;6.90;2.55;;;33.10;99.90;;;;;;5112667;28;20293;-65
2022/08/04 11:52:33;;;;;;;9.90;2.80;;;33.20;99.90;;;;;;5112354;28;20219;-64
2022/08/04 11:55:05;;;;;;;7.82;2.25;;;32.90;99.90;;;;;;5113542;28;20291;-64
2022/08/04 11:57:32;;;;;;;7.03;2.42;;;33.00;99.90;;;;;;5112845;28;20211;-65
2022/08/04 12:00:00;;;;;;;8.40;2.85;;;33.00;99.90;;;;;;5112184;28;20208;-62
2022/08/04 12:02:58;;;;;;;7.28;2.28;;;33.10;99.90;;;;;;5112519;28;20199;-63
2022/08/04 12:05:31;;;;;;;8.38;2.75;;;33.10;99.90;;;;;;5111925;28;20658;-65
2022/08/04 12:08:11;;;;;;;7.60;2.67;;;32.70;99.90;;;;;;5112022;28;20571;-64
2022/08/04 12:10:47;;;;;;;3.47;2.08;;;32.50;99.90;;;;;;5112328;27;20268;-65
2022/08/04 12:13:26;;;;;;;4.30;1.90;;;32.30;99.90;;;;;;5111823;27;20618;-66
2022/08/04 12:16:02;;;;;;;9.43;2.70;;;32.20;99.90;;;;;;5111781;28;20210;-64
2022/08/04 12:18:37;;;;;;;2.95;2.08;;;32.00;99.90;;;;;;5112343;28;20643;-65
2022/08/04 12:21:12;;;;;;;6.55;1.83;;;31.90;99.90;;;;;;5111680;28;20246;-64
2022/08/04 12:23:41;;;;;;;7.90;2.25;;;31.40;99.90;;;;;;5112083;28;20203;-64
2022/08/04 12:26:14;;;;;;;4.38;2.15;;;31.20;99.90;;;;;;5111916;28;20545;-65
2022/08/04 12:28:43;;;;;;;3.78;1.75;;;30.90;99.90;;;;;;5112334;28;20583;-64
2022/08/04 12:31:15;;;;;;;3.90;1.70;;;30.90;99.90;;;;;;5111915;28;20280;-65
2022/08/04 12:33:49;;;;;;;3.67;1.80;;;31.00;99.90;;;;;;5111667;28;20590;-65
2022/08/04 12:36:24;;;;;;;2.70;1.73;;;31.00;99.90;;;;;;5111503;28;20200;-63
2022/08/04 12:38:58;;;;;;;5.10;2.65;;;31.00;99.90;;;;;;5111636;28;20221;-63
2022/08/04 12:41:32;;;;;;;3.63;1.88;;;31.10;99.90;;;;;;5111580;28;20639;-64
2022/08/04 12:44:05;;;;;;;4.90;1.88;;;31.20;99.90;;;;;;5111633;28;20264;-63
2022/08/04 12:46:32;;;;;;;11.00;2.10;;;31.20;99.90;;;;;;5111571;28;20199;-64
2022/08/04 12:49:02;;;;;;;9.25;2.00;;;31.20;99.90;;;;;;5111876;28;20216;-63
2022/08/04 12:51:37;;;;;;;8.50;2.40;;;30.90;99.90;;;;;;5111128;28;20976;-63
2022/08/04 12:54:05;;;;;;;9.98;2.08;;;31.10;99.90;;;;;;5111811;28;20272;-62
2022/08/04 12:56:32;;;;;;;3.65;1.90;;;31.10;99.90;;;;;;5111283;28;20294;-63
2022/08/04 12:59:02;;;;;;;6.07;2.15;;;30.90;99.90;;;;;;5111387;28;20210;-63
2022/08/04 13:01:30;;;;;;;4.53;1.85;;;30.70;99.90;;;;;;5111042;28;20232;-64
2022/08/04 13:04:00;;;;;;;8.18;2.40;;;30.50;99.90;;;;;;5111997;28;20226;-64
2022/08/04 13:06:32;;;;;;;4.97;1.88;;;30.40;99.90;;;;;;5111072;28;20674;-65
2022/08/04 13:09:05;;;;;;;6.22;2.10;;;30.50;99.90;;;;;;5111854;28;20203;-63
2022/08/04 13:11:37;;;;;;;4.55;2.10;;;30.50;99.90;;;;;;5111325;28;20380;-65
2022/08/04 13:14:04;;;;;;;6.20;2.10;;;30.80;99.90;;;;;;5111250;28;20243;-66
2022/08/04 13:16:33;;;;;;;7.40;2.70;;;31.10;99.90;;;;;;5111518;28;20207;-65
2022/08/04 13:19:00;;;;;;;8.48;2.80;;;31.40;99.90;;;;;;5111520;28;20562;-65
2022/08/04 13:21:30;;;;;;;6.43;2.58;;;31.50;99.90;;;;;;5111101;28;20227;-64
2022/08/04 13:24:03;;;;;;;7.38;2.60;;;31.70;99.90;;;;;;5111400;28;20215;-62
2022/08/04 13:26:32;;;;;;;7.32;2.70;;;31.70;99.90;;;;;;5111251;28;20200;-63
2022/08/04 13:29:02;;;;;;;4.57;2.28;;;31.70;99.90;;;;;;5111107;28;20203;-64
2022/08/04 13:31:30;;;;;;;5.95;2.72;;;31.60;99.90;;;;;;5111634;28;20671;-63
2022/08/04 13:34:06;;;;;;;5.13;2.72;;;31.10;99.90;;;;;;5112123;28;20294;-64